createdAt,value
2019-05-11T00:00:07.729Z,76.50
2019-05-11T00:02:36.541Z,76.70
2019-05-11T00:05:06.707Z,76.80
2019-05-11T00:07:35.660Z,76.40
2019-05-11T00:10:07.327Z,76.60
2019-05-11T00:12:36.229Z,76.80
2019-05-11T00:15:06.175Z,77.30
2019-05-11T00:17:35.064Z,77.70
2019-05-11T00:20:05.232Z,77.60
2019-05-11T00:22:34.199Z,76.80
2019-05-11T00:25:03.046Z,77.00
2019-05-11T00:27:31.884Z,76.90
2019-05-11T00:30:00.679Z,76.90
2019-05-11T00:32:29.466Z,77.70
2019-05-11T00:34:58.414Z,77.00
2019-05-11T00:37:27.278Z,77.00
2019-05-11T00:39:56.160Z,76.70
2019-05-11T00:42:24.944Z,77.10
2019-05-11T00:44:53.835Z,77.10
2019-05-11T00:47:22.663Z,77.50
2019-05-11T00:49:51.453Z,77.60
2019-05-11T00:52:20.342Z,77.30
2019-05-11T00:54:49.124Z,76.60
2019-05-11T00:57:18.366Z,76.00
2019-05-11T00:59:47.155Z,76.00
2019-05-11T01:02:15.971Z,76.70
2019-05-11T01:04:44.898Z,77.40
2019-05-11T01:07:13.798Z,77.30
2019-05-11T01:09:42.604Z,77.40
2019-05-11T01:12:11.476Z,77.70
2019-05-11T01:14:40.327Z,77.50
2019-05-11T01:17:09.174Z,77.20
2019-05-11T01:19:38.425Z,78.20
2019-05-11T01:22:07.214Z,77.40
2019-05-11T01:24:36.134Z,76.90
2019-05-11T01:27:04.962Z,77.00
2019-05-11T01:29:33.848Z,76.90
2019-05-11T01:32:02.685Z,76.50
2019-05-11T01:34:31.581Z,76.80
2019-05-11T01:37:00.385Z,75.70
2019-05-11T01:39:29.154Z,76.30
2019-05-11T01:41:57.979Z,76.60
2019-05-11T01:44:26.772Z,77.60
2019-05-11T01:46:55.588Z,76.60
2019-05-11T01:49:24.376Z,76.80
2019-05-11T01:51:53.179Z,76.20
2019-05-11T01:54:22.326Z,76.20
2019-05-11T01:56:51.140Z,76.40
2019-05-11T01:59:19.985Z,76.20
2019-05-11T02:01:48.801Z,76.00
2019-05-11T02:04:17.585Z,76.00
2019-05-11T02:06:46.389Z,75.80
2019-05-11T02:09:15.251Z,75.50
2019-05-11T02:11:44.083Z,75.70
2019-05-11T02:14:12.871Z,76.90
2019-05-11T02:16:41.668Z,76.30
2019-05-11T02:19:10.553Z,76.30
2019-05-11T02:21:39.346Z,76.80
2019-05-11T02:24:08.233Z,76.90
2019-05-11T02:26:37.102Z,77.20
2019-05-11T02:29:05.920Z,76.80
2019-05-11T02:31:34.766Z,77.30
2019-05-11T02:34:03.726Z,77.10
2019-05-11T02:36:32.626Z,77.10
2019-05-11T02:39:01.464Z,76.60
2019-05-11T02:41:36.382Z,76.30
2019-05-11T02:44:00.743Z,76.00
2019-05-11T02:46:29.603Z,75.80
2019-05-11T02:48:58.399Z,75.70
2019-05-11T02:51:29.189Z,75.40
2019-05-11T02:53:59.339Z,75.90
2019-05-11T02:56:28.166Z,75.50
2019-05-11T02:58:57.009Z,75.30
2019-05-11T03:01:25.845Z,75.20
2019-05-11T03:03:58.663Z,75.50
2019-05-11T03:06:28.012Z,75.50
2019-05-11T03:08:56.836Z,75.50
2019-05-11T03:11:27.586Z,76.90
2019-05-11T03:13:56.434Z,77.40
2019-05-11T03:16:25.291Z,77.10
2019-05-11T03:18:54.193Z,77.10
2019-05-11T03:21:22.978Z,77.10
2019-05-11T03:23:51.892Z,77.60
2019-05-11T03:26:20.684Z,78.20
2019-05-11T03:28:49.582Z,78.90
2019-05-11T03:31:18.384Z,79.70
2019-05-11T03:33:47.263Z,80.30
2019-05-11T03:36:16.042Z,81.30
2019-05-11T03:38:44.867Z,81.60
2019-05-11T03:41:13.734Z,81.80
2019-05-11T03:43:42.517Z,82.40
2019-05-11T03:46:11.329Z,82.00
2019-05-11T03:48:40.119Z,82.50
2019-05-11T03:51:08.989Z,82.70
2019-05-11T03:53:37.835Z,83.30
2019-05-11T03:56:06.716Z,83.80
2019-05-11T03:58:35.523Z,83.90
2019-05-11T04:01:04.403Z,83.90
2019-05-11T04:03:33.191Z,83.80
2019-05-11T04:06:02.012Z,84.30
2019-05-11T04:08:30.807Z,84.00
2019-05-11T04:10:59.679Z,84.00
2019-05-11T04:13:28.552Z,84.60
2019-05-11T04:15:57.379Z,84.30
2019-05-11T04:18:26.233Z,85.10
2019-05-11T04:20:55.095Z,84.60
2019-05-11T04:23:23.921Z,84.70
2019-05-11T04:25:52.770Z,84.80
2019-05-11T04:28:21.669Z,84.00
2019-05-11T04:30:50.537Z,83.90
2019-05-11T04:33:19.355Z,84.80
2019-05-11T04:35:48.133Z,85.50
2019-05-11T04:38:16.965Z,86.90
2019-05-11T04:40:45.744Z,86.00
2019-05-11T04:43:14.664Z,84.80
2019-05-11T04:45:43.464Z,85.40
2019-05-11T04:48:12.319Z,85.10
2019-05-11T04:50:41.208Z,84.70
2019-05-11T04:53:09.995Z,83.90
2019-05-11T04:55:38.819Z,83.10
2019-05-11T04:58:07.661Z,82.30
2019-05-11T05:00:41.537Z,82.40
2019-05-11T05:03:10.317Z,83.00
2019-05-11T05:05:39.086Z,83.00
2019-05-11T05:08:09.883Z,81.90
2019-05-11T05:10:38.437Z,82.20
2019-05-11T05:13:10.466Z,81.70
2019-05-11T05:15:37.754Z,82.10
2019-05-11T05:18:06.671Z,82.60
2019-05-11T05:20:35.448Z,82.60
2019-05-11T05:23:04.230Z,81.80
2019-05-11T05:25:33.120Z,81.50
2019-05-11T05:28:02.059Z,81.50
2019-05-11T05:30:31.008Z,81.60
2019-05-11T05:33:00.946Z,81.30
2019-05-11T05:35:31.446Z,80.30
2019-05-11T05:38:00.237Z,80.40
2019-05-11T05:40:29.129Z,80.70
2019-05-11T05:43:02.158Z,82.20
2019-05-11T05:45:31.053Z,81.60
2019-05-11T05:48:00.425Z,80.60
2019-05-11T05:50:29.309Z,80.70
2019-05-11T05:52:58.161Z,80.50
2019-05-11T05:55:26.985Z,80.80
2019-05-11T05:57:56.822Z,81.00
2019-05-11T06:00:27.490Z,81.50
2019-05-11T06:02:56.372Z,80.70
2019-05-11T06:05:25.216Z,79.80
2019-05-11T06:07:54.132Z,80.00
2019-05-11T06:10:24.389Z,80.50
2019-05-11T06:12:53.238Z,80.50
2019-05-11T06:15:22.017Z,80.10
2019-05-11T06:17:50.812Z,79.50
2019-05-11T06:20:19.811Z,79.00
2019-05-11T06:22:50.262Z,78.50
2019-05-11T06:25:20.556Z,78.80
2019-05-11T06:27:49.356Z,78.20
2019-05-11T06:30:19.544Z,77.40
2019-05-11T06:32:48.390Z,77.00
2019-05-11T06:35:17.705Z,76.20
2019-05-11T06:37:46.479Z,76.80
2019-05-11T06:40:15.628Z,76.40
2019-05-11T06:42:44.454Z,76.00
2019-05-11T06:45:13.347Z,75.90
2019-05-11T06:47:42.275Z,76.10
2019-05-11T06:50:11.232Z,74.80
2019-05-11T06:52:40.017Z,73.20
2019-05-11T06:55:08.944Z,71.70
2019-05-11T06:57:37.709Z,71.90
2019-05-11T07:00:06.914Z,71.80
2019-05-11T07:02:35.768Z,71.50
2019-05-11T07:05:06.287Z,70.40
2019-05-11T07:07:47.178Z,70.20
2019-05-11T07:10:06.856Z,69.80
2019-05-11T07:12:35.700Z,70.20
2019-05-11T07:15:06.434Z,69.60
2019-05-11T07:17:35.217Z,68.00
2019-05-11T07:20:07.106Z,66.10
2019-05-11T07:22:35.882Z,64.70
2019-05-11T07:25:08.474Z,63.80
2019-05-11T07:27:37.321Z,63.40
2019-05-11T07:30:08.136Z,61.20
2019-05-11T07:32:38.425Z,62.20
2019-05-11T07:35:08.407Z,61.00
2019-05-11T07:37:38.492Z,60.30
2019-05-11T07:40:08.826Z,59.70
2019-05-11T07:42:38.941Z,58.70
2019-05-11T07:45:09.084Z,57.60
2019-05-11T07:47:38.193Z,58.40
2019-05-11T07:50:08.388Z,57.80
2019-05-11T07:52:37.970Z,56.70
2019-05-11T07:55:08.720Z,55.50
2019-05-11T07:57:39.136Z,54.10
2019-05-11T08:00:08.555Z,53.70
2019-05-11T08:02:38.636Z,52.80
2019-05-11T08:05:09.008Z,51.50
2019-05-11T08:07:38.045Z,51.40
2019-05-11T08:10:10.003Z,49.90
2019-05-11T08:12:39.324Z,50.20
2019-05-11T08:15:13.006Z,48.80
2019-05-11T08:17:38.955Z,46.60
2019-05-11T08:20:08.540Z,44.40
2019-05-11T08:22:37.810Z,46.20
2019-05-11T08:25:09.192Z,43.20
2019-05-11T08:27:38.090Z,40.00
2019-05-11T08:30:11.939Z,38.70
2019-05-11T08:32:40.886Z,37.40
2019-05-11T08:35:09.863Z,38.30
2019-05-11T08:37:39.675Z,40.30
2019-05-11T08:40:09.303Z,41.60
2019-05-11T08:42:38.100Z,40.00
2019-05-11T08:45:19.545Z,40.80
2019-05-11T08:47:37.906Z,40.80
2019-05-11T08:50:08.183Z,37.50
2019-05-11T08:52:38.651Z,36.80
2019-05-11T08:55:08.504Z,34.30
2019-05-11T08:57:38.719Z,35.00
2019-05-11T09:00:10.356Z,35.60
2019-05-11T09:02:39.178Z,38.40
2019-05-11T09:05:08.438Z,39.40
2019-05-11T09:07:38.387Z,41.00
2019-05-11T09:10:08.267Z,43.50
2019-05-11T09:12:38.222Z,42.10
2019-05-11T09:15:08.871Z,39.90
2019-05-11T09:17:38.277Z,40.50
2019-05-11T09:20:08.956Z,39.90
2019-05-11T09:22:38.241Z,38.90
2019-05-11T09:25:08.915Z,37.20
2019-05-11T09:27:37.867Z,35.30
2019-05-11T09:30:10.372Z,35.10
2019-05-11T09:32:39.227Z,35.90
2019-05-11T09:35:08.488Z,38.20
2019-05-11T09:37:38.040Z,37.40
2019-05-11T09:40:08.012Z,34.10
2019-05-11T09:42:38.923Z,31.80
2019-05-11T09:45:08.202Z,29.20
2019-05-11T09:47:38.618Z,28.80
2019-05-11T09:50:09.576Z,29.30
2019-05-11T09:52:38.672Z,30.00
2019-05-11T09:55:08.941Z,33.20
2019-05-11T09:57:38.288Z,35.50
2019-05-11T10:00:10.723Z,36.80
2019-05-11T10:02:39.638Z,34.30
2019-05-11T10:05:08.618Z,33.60
2019-05-11T10:07:38.092Z,31.60
2019-05-11T10:10:09.157Z,29.60
2019-05-11T10:12:38.470Z,29.40
2019-05-11T10:15:08.497Z,29.70
2019-05-11T10:17:39.156Z,29.80
2019-05-11T10:20:09.220Z,28.90
2019-05-11T10:22:38.652Z,27.00
2019-05-11T10:25:09.225Z,25.70
2019-05-11T10:27:38.520Z,25.30
2019-05-11T10:30:08.382Z,23.70
2019-05-11T10:32:38.029Z,24.30
2019-05-11T10:35:08.205Z,25.20
2019-05-11T10:37:39.000Z,26.20
2019-05-11T10:40:09.505Z,25.70
2019-05-11T10:42:38.545Z,26.80
2019-05-11T10:45:09.042Z,27.40
2019-05-11T10:47:38.479Z,26.80
2019-05-11T10:50:08.875Z,26.60
2019-05-11T10:52:39.445Z,24.30
2019-05-11T10:55:08.767Z,23.40
2019-05-11T10:57:38.708Z,22.60
2019-05-11T11:00:09.942Z,23.10
2019-05-11T11:02:38.722Z,22.30
2019-05-11T11:05:08.315Z,21.80
2019-05-11T11:07:38.341Z,22.70
2019-05-11T11:10:08.787Z,22.40
2019-05-11T11:12:38.655Z,23.50
2019-05-11T11:15:08.762Z,22.40
2019-05-11T11:17:38.251Z,19.50
2019-05-11T11:20:08.739Z,20.00
2019-05-11T11:22:43.009Z,20.40
2019-05-11T11:25:08.566Z,20.90
2019-05-11T11:27:38.079Z,22.70
2019-05-11T11:30:09.228Z,23.00
2019-05-11T11:32:38.442Z,23.00
2019-05-11T11:35:08.626Z,22.10
2019-05-11T11:37:38.719Z,22.20
2019-05-11T11:40:08.875Z,24.00
2019-05-11T11:42:37.818Z,21.70
2019-05-11T11:45:08.516Z,21.10
2019-05-11T11:47:38.402Z,20.10
2019-05-11T11:50:09.208Z,21.00
2019-05-11T11:52:38.452Z,22.70
2019-05-11T11:55:09.616Z,24.80
2019-05-11T11:57:38.460Z,27.30
2019-05-11T12:00:09.806Z,29.00
2019-05-11T12:02:38.906Z,27.70
2019-05-11T12:05:08.856Z,26.40
2019-05-11T12:07:38.695Z,24.10
2019-05-11T12:10:08.712Z,23.60
2019-05-11T12:12:38.642Z,25.60
2019-05-11T12:15:08.820Z,27.30
2019-05-11T12:17:37.995Z,26.00
2019-05-11T12:20:08.981Z,27.80
2019-05-11T12:22:38.656Z,26.40
2019-05-11T12:25:08.619Z,24.60
2019-05-11T12:27:38.338Z,23.70
2019-05-11T12:30:09.070Z,23.00
2019-05-11T12:32:45.162Z,23.40
2019-05-11T12:35:14.035Z,25.00
2019-05-11T12:37:42.850Z,27.40
2019-05-11T12:40:12.220Z,29.40
2019-05-11T12:42:41.105Z,31.10
2019-05-11T12:45:10.450Z,31.20
2019-05-11T12:47:39.275Z,29.30
2019-05-11T12:50:08.605Z,28.70
2019-05-11T12:52:38.284Z,28.70
2019-05-11T12:55:08.905Z,26.10
2019-05-11T12:57:38.610Z,24.80
2019-05-11T13:00:08.761Z,25.40
2019-05-11T13:02:38.792Z,26.30
2019-05-11T13:05:08.704Z,27.50
2019-05-11T13:07:39.261Z,28.50
2019-05-11T13:10:09.105Z,28.00
2019-05-11T13:12:38.642Z,26.90
2019-05-11T13:15:08.580Z,25.60
2019-05-11T13:17:40.577Z,24.00
2019-05-11T13:20:08.660Z,25.30
2019-05-11T13:22:38.269Z,26.20
2019-05-11T13:25:08.521Z,24.50
2019-05-11T13:27:38.625Z,23.00
2019-05-11T13:30:08.353Z,22.30
2019-05-11T13:32:38.700Z,23.30
2019-05-11T13:35:09.139Z,24.70
2019-05-11T13:37:38.762Z,26.50
2019-05-11T13:40:08.342Z,27.60
2019-05-11T13:42:38.525Z,28.40
2019-05-11T13:45:11.167Z,30.70
2019-05-11T13:47:51.874Z,29.60
2019-05-11T13:50:10.494Z,26.70
2019-05-11T13:52:39.278Z,23.70
2019-05-11T13:55:08.386Z,22.10
2019-05-11T13:57:38.144Z,20.80
2019-05-11T14:00:08.935Z,20.70
2019-05-11T14:02:38.073Z,20.60
2019-05-11T14:05:08.770Z,21.70
2019-05-11T14:07:38.226Z,23.00
2019-05-11T14:10:09.154Z,22.60
2019-05-11T14:12:38.625Z,22.30
2019-05-11T14:15:08.800Z,23.50
2019-05-11T14:17:38.036Z,23.40
2019-05-11T14:20:09.071Z,24.70
2019-05-11T14:22:38.932Z,26.10
2019-05-11T14:25:08.586Z,27.90
2019-05-11T14:27:39.085Z,30.30
2019-05-11T14:30:09.439Z,30.80
2019-05-11T14:32:38.932Z,33.50
2019-05-11T14:35:12.090Z,34.80
2019-05-11T14:37:38.495Z,35.40
2019-05-11T14:40:10.403Z,36.80
2019-05-11T14:42:39.170Z,37.30
2019-05-11T14:45:09.047Z,38.50
2019-05-11T14:47:38.723Z,39.60
2019-05-11T14:50:08.805Z,40.40
2019-05-11T14:52:39.122Z,40.40
2019-05-11T14:55:08.359Z,39.70
2019-05-11T14:57:39.666Z,39.20
2019-05-11T15:00:09.772Z,40.10
2019-05-11T15:02:50.021Z,40.70
2019-05-11T15:05:20.643Z,40.40
2019-05-11T15:07:52.335Z,40.70
2019-05-11T15:10:21.377Z,40.10
2019-05-11T15:12:50.269Z,41.30
2019-05-11T15:15:19.509Z,41.90
2019-05-11T15:17:49.272Z,42.70
2019-05-11T15:20:18.924Z,42.50
2019-05-11T15:22:48.956Z,42.50
2019-05-11T15:25:19.287Z,42.70
2019-05-11T15:27:49.005Z,42.70
2019-05-11T15:30:18.594Z,43.10
2019-05-11T15:32:48.611Z,43.00
2019-05-11T15:35:18.607Z,42.60
2019-05-11T15:37:48.177Z,42.40
2019-05-11T15:40:18.848Z,42.30
2019-05-11T15:42:48.959Z,42.00
2019-05-11T15:45:20.074Z,43.20
2019-05-11T15:47:49.118Z,43.20
2019-05-11T15:50:19.832Z,43.30
2019-05-11T15:52:49.016Z,43.20
2019-05-11T15:55:18.998Z,43.10
2019-05-11T15:57:53.056Z,43.40
2019-05-11T16:00:21.573Z,43.40
2019-05-11T16:02:52.444Z,43.40
2019-05-11T16:05:23.931Z,43.60
2019-05-11T16:07:55.150Z,43.30
2019-05-11T16:10:32.380Z,43.90
2019-05-11T16:13:03.124Z,44.10
2019-05-11T16:15:35.486Z,44.30
2019-05-11T16:18:08.162Z,44.10
2019-05-11T16:20:36.789Z,45.00
2019-05-11T16:23:05.668Z,44.50
2019-05-11T16:25:41.030Z,45.00
2019-05-11T16:28:11.888Z,44.90
2019-05-11T16:30:43.255Z,44.80
2019-05-11T16:33:17.803Z,45.20
2019-05-11T16:35:49.192Z,45.00
2019-05-11T16:38:21.768Z,44.70
2019-05-11T16:40:52.975Z,44.90
2019-05-11T16:43:22.843Z,44.70
2019-05-11T16:46:02.838Z,44.30
2019-05-11T16:48:38.756Z,44.70
2019-05-11T16:51:09.997Z,45.50
2019-05-11T16:53:39.496Z,46.20
2019-05-11T16:56:09.744Z,46.40
2019-05-11T16:58:41.057Z,46.70
2019-05-11T17:01:09.092Z,46.60
2019-05-11T17:03:54.116Z,46.30
2019-05-11T17:06:23.791Z,46.20
2019-05-11T17:09:05.189Z,46.30
2019-05-11T17:11:38.624Z,46.80
2019-05-11T17:14:09.261Z,46.90
2019-05-11T17:16:39.476Z,47.30
2019-05-11T17:19:08.905Z,47.60
2019-05-11T17:21:39.332Z,47.00
2019-05-11T17:24:08.519Z,47.00
2019-05-11T17:26:38.518Z,46.90
2019-05-11T17:29:10.069Z,46.60
2019-05-11T17:31:43.379Z,47.20
2019-05-11T17:34:20.058Z,48.50
2019-05-11T17:36:44.655Z,48.80
2019-05-11T17:39:14.949Z,48.60
2019-05-11T17:41:43.860Z,49.10
2019-05-11T17:44:18.335Z,48.60
2019-05-11T17:46:48.948Z,49.40
2019-05-11T17:49:18.570Z,49.60
2019-05-11T17:51:48.466Z,49.20
2019-05-11T17:54:21.269Z,49.60
2019-05-11T17:56:50.200Z,50.10
2019-05-11T17:59:20.401Z,50.90
2019-05-11T18:01:49.304Z,51.20
2019-05-11T18:04:18.522Z,51.90
2019-05-11T18:06:54.075Z,52.30
2019-05-11T18:09:23.242Z,52.30
2019-05-11T18:11:53.829Z,52.60
2019-05-11T18:14:28.010Z,52.60
2019-05-11T18:17:09.903Z,52.60
2019-05-11T18:19:39.463Z,53.20
2019-05-11T18:22:10.255Z,53.00
2019-05-11T18:24:40.948Z,53.40
2019-05-11T18:27:11.642Z,53.50
2019-05-11T18:29:42.161Z,53.80
2019-05-11T18:32:11.351Z,54.40
2019-05-11T18:34:42.188Z,54.20
2019-05-11T18:37:12.079Z,54.10
2019-05-11T18:39:41.626Z,54.10
2019-05-11T18:42:10.739Z,53.70
2019-05-11T18:44:40.089Z,54.30
2019-05-11T18:47:09.009Z,54.40
2019-05-11T18:49:39.394Z,54.80
2019-05-11T18:52:09.224Z,55.70
2019-05-11T18:54:42.102Z,56.00
2019-05-11T18:57:11.969Z,55.70
2019-05-11T18:59:42.242Z,55.60
2019-05-11T19:02:14.780Z,55.40
2019-05-11T19:04:44.586Z,56.10
2019-05-11T19:07:17.005Z,56.00
2019-05-11T19:09:44.210Z,56.00
2019-05-11T19:12:13.107Z,55.60
2019-05-11T19:14:41.990Z,55.70
2019-05-11T19:17:10.830Z,56.40
2019-05-11T19:19:39.730Z,56.90
2019-05-11T19:22:09.147Z,56.70
2019-05-11T19:24:38.363Z,56.40
2019-05-11T19:27:08.147Z,56.60
2019-05-11T19:29:37.947Z,56.50
2019-05-11T19:32:10.818Z,56.40
2019-05-11T19:34:38.780Z,57.00
2019-05-11T19:37:08.653Z,57.00
2019-05-11T19:39:38.443Z,56.60
2019-05-11T19:42:07.941Z,56.80
2019-05-11T19:44:38.568Z,56.60
2019-05-11T19:47:08.956Z,56.70
2019-05-11T19:49:38.393Z,56.40
2019-05-11T19:52:08.591Z,57.00
2019-05-11T19:54:38.161Z,57.00
2019-05-11T19:57:08.380Z,57.20
2019-05-11T19:59:38.728Z,57.40
2019-05-11T20:02:08.385Z,57.00
2019-05-11T20:04:38.685Z,57.10
2019-05-11T20:07:08.773Z,57.00
2019-05-11T20:09:38.702Z,57.50
2019-05-11T20:12:07.982Z,57.30
2019-05-11T20:14:37.852Z,56.60
2019-05-11T20:17:08.806Z,57.30
2019-05-11T20:19:38.455Z,58.30
2019-05-11T20:22:07.475Z,57.50
2019-05-11T20:24:36.320Z,58.00
2019-05-11T20:27:05.110Z,58.30
2019-05-11T20:29:34.027Z,58.20
2019-05-11T20:32:02.885Z,58.30
2019-05-11T20:34:31.731Z,57.90
2019-05-11T20:37:00.590Z,58.00
2019-05-11T20:39:29.394Z,58.40
2019-05-11T20:41:58.244Z,58.20
2019-05-11T20:44:28.688Z,58.20
2019-05-11T20:46:58.142Z,58.40
2019-05-11T20:49:28.226Z,58.80
2019-05-11T20:51:58.021Z,58.80
2019-05-11T20:54:28.125Z,59.50
2019-05-11T20:56:58.490Z,59.60
2019-05-11T20:59:29.017Z,59.60
2019-05-11T21:01:58.878Z,59.90
2019-05-11T21:04:28.231Z,59.90
2019-05-11T21:06:58.106Z,59.70
2019-05-11T21:09:28.989Z,60.00
2019-05-11T21:11:58.898Z,60.40
2019-05-11T21:14:28.814Z,59.90
2019-05-11T21:16:58.758Z,59.70
2019-05-11T21:19:28.449Z,60.30
2019-05-11T21:21:59.052Z,60.50
2019-05-11T21:24:28.268Z,61.30
2019-05-11T21:26:58.482Z,61.50
2019-05-11T21:29:30.896Z,60.90
2019-05-11T21:31:59.007Z,60.70
2019-05-11T21:34:28.135Z,61.00
2019-05-11T21:36:56.949Z,60.60
2019-05-11T21:39:25.731Z,60.60
2019-05-11T21:41:58.184Z,60.80
2019-05-11T21:44:27.841Z,61.30
2019-05-11T21:46:57.800Z,60.70
2019-05-11T21:49:26.646Z,60.70
2019-05-11T21:52:04.226Z,60.90
2019-05-11T21:54:29.961Z,61.90
2019-05-11T21:56:57.824Z,62.20
2019-05-11T21:59:27.674Z,62.60
2019-05-11T22:01:57.177Z,63.00
2019-05-11T22:04:28.305Z,63.10
2019-05-11T22:06:58.580Z,62.70
2019-05-11T22:09:27.829Z,62.60
2019-05-11T22:11:57.130Z,62.50
2019-05-11T22:14:29.669Z,62.60
2019-05-11T22:16:59.168Z,62.60
2019-05-11T22:19:26.913Z,62.80
2019-05-11T22:21:58.330Z,62.50
2019-05-11T22:24:28.148Z,62.60
2019-05-11T22:26:57.471Z,62.90
2019-05-11T22:29:28.613Z,63.00
2019-05-11T22:31:58.115Z,63.60
2019-05-11T22:34:28.409Z,62.60
2019-05-11T22:36:59.271Z,62.80
2019-05-11T22:39:27.832Z,62.80
2019-05-11T22:41:58.799Z,62.80
2019-05-11T22:44:27.916Z,62.20
2019-05-11T22:46:58.248Z,62.70
2019-05-11T22:49:28.451Z,63.00
2019-05-11T22:51:59.597Z,63.00
2019-05-11T22:54:28.977Z,63.00
2019-05-11T22:56:58.646Z,63.60
2019-05-11T22:59:28.092Z,63.80
2019-05-11T23:01:57.150Z,63.60
2019-05-11T23:04:28.594Z,63.40
2019-05-11T23:06:58.116Z,63.50
2019-05-11T23:09:27.701Z,62.90
2019-05-11T23:11:58.316Z,63.00
2019-05-11T23:14:28.262Z,63.00
2019-05-11T23:16:58.587Z,63.40
2019-05-11T23:19:27.958Z,63.20
2019-05-11T23:21:58.739Z,63.60
2019-05-11T23:24:28.812Z,63.50
2019-05-11T23:26:58.014Z,64.80
2019-05-11T23:29:27.920Z,64.40
2019-05-11T23:31:58.396Z,63.60
2019-05-11T23:34:28.255Z,63.90
2019-05-11T23:36:59.165Z,63.80
2019-05-11T23:39:28.289Z,63.60
2019-05-11T23:41:58.589Z,63.60
2019-05-11T23:44:27.591Z,63.30
2019-05-11T23:46:56.471Z,62.70
2019-05-11T23:49:25.342Z,62.70
2019-05-11T23:51:54.168Z,63.00
2019-05-11T23:54:23.030Z,62.80
2019-05-11T23:56:51.872Z,62.40
2019-05-11T23:59:20.724Z,62.20
